Sharon Ann — V7RW9 — position and weather

sailwx.info

Track history (hours):
 
Tides and Currents Weather Stations Pressure Air Temp Water Temp Dewpoint Dewpoint Depression Visibility Wind Speed Wind Dir Waves Ship Positions

Sharon Ann

Last reported at 2018-Aug-12 17:02 UTC. Time now 2018-Aug-21 03:57 UTC.
Position N 33°37' W 117°55'.
Warning: this ship's position is 8 days out of date.

Length 30 m; draft 2.3 m.

Type: Pleasure craft. MMSI: 538070638.

Date/timePositionNaut miles runAvg speedWind from/ knotsBaromVisibWave heightAir tempDewpointWater temp
2018-Aug-12 17:02N 33°37' W 117°55'0 0.0
2018-Aug-12 17:01N 33°37' W 117°55'1 1.9
2018-Aug-12 16:29N 33°36' W 117°54'3 5.6
2018-Aug-12 16:00N 33°34' W 117°55'612.9
2018-Aug-12 15:31N 33°30' W 118°01'713.1
2018-Aug-12 15:00N 33°27' W 118°08'613.0
2018-Aug-12 14:30N 33°23' W 118°15'5 9.7
2018-Aug-12 14:00N 33°21' W 118°19'0 0.0
2018-Aug-12 00:03N 33°21' W 118°19'2 3.9
2018-Aug-11 23:32N 33°22' W 118°17'113.4
2018-Aug-11 23:27N 33°21' W 118°19'1 0.0
2018-Aug-10 18:58N 33°21' W 118°19'0 0.0
2018-Aug-10 18:30N 33°21' W 118°19'3 6.6
2018-Aug-10 18:00N 33°23' W 118°17'612.0
2018-Aug-10 17:31N 33°27' W 118°11'713.0
2018-Aug-10 17:00N 33°30' W 118°04'714.4
2018-Aug-10 16:31N 33°33' W 117°57'4 7.5
2018-Aug-10 16:00N 33°36' W 117°54'1 2.7
2018-Aug-10 15:30N 33°37' W 117°55'0 0.0
2018-Aug-10 15:01N 33°37' W 117°55'0 0.0
2018-Aug-10 14:30N 33°37' W 117°55'  
2018-Aug-07 17:28N 33°37' W 117°55'  
Track history (hours):
 
Tides and Currents Weather Stations Pressure Air Temp Water Temp Dewpoint Dewpoint Depression Visibility Wind Speed Wind Dir Waves Ship Positions

Sharon Ann

Last reported at 2018-Aug-12 17:02 UTC. Time now 2018-Aug-21 03:57 UTC.
Position N 33°37' W 117°55'.
Warning: this ship's position is 8 days out of date.

Length 30 m; draft 2.3 m.

Type: Pleasure craft. MMSI: 538070638.

Date/timePositionNaut miles runAvg speedWind from/ knotsBaromVisibWave heightAir tempDewpointWater temp
2018-Aug-12 17:02N 33°37' W 117°55'0 0.0
2018-Aug-12 17:01N 33°37' W 117°55'1 1.9
2018-Aug-12 16:29N 33°36' W 117°54'3 5.6
2018-Aug-12 16:00N 33°34' W 117°55'612.9
2018-Aug-12 15:31N 33°30' W 118°01'713.1
2018-Aug-12 15:00N 33°27' W 118°08'613.0
2018-Aug-12 14:30N 33°23' W 118°15'5 9.7
2018-Aug-12 14:00N 33°21' W 118°19'0 0.0
2018-Aug-12 00:03N 33°21' W 118°19'2 3.9
2018-Aug-11 23:32N 33°22' W 118°17'113.4
2018-Aug-11 23:27N 33°21' W 118°19'1 0.0
2018-Aug-10 18:58N 33°21' W 118°19'0 0.0
2018-Aug-10 18:30N 33°21' W 118°19'3 6.6
2018-Aug-10 18:00N 33°23' W 118°17'612.0
2018-Aug-10 17:31N 33°27' W 118°11'713.0
2018-Aug-10 17:00N 33°30' W 118°04'714.4
2018-Aug-10 16:31N 33°33' W 117°57'4 7.5
2018-Aug-10 16:00N 33°36' W 117°54'1 2.7
2018-Aug-10 15:30N 33°37' W 117°55'0 0.0
2018-Aug-10 15:01N 33°37' W 117°55'0 0.0
2018-Aug-10 14:30N 33°37' W 117°55'  
2018-Aug-07 17:28N 33°37' W 117°55'  

Dump ship's entire track history